createdAt,value
2022-08-22T00:00:35.602Z,99.90
2022-08-22T00:02:45.978Z,99.90
2022-08-22T00:02:49.791Z,99.90
2022-08-22T00:03:01.813Z,99.90
2022-08-22T00:03:12.111Z,99.90
2022-08-22T00:03:12.193Z,99.90
2022-08-22T00:03:22.612Z,99.90
2022-08-22T00:06:08.101Z,99.90
2022-08-22T00:08:48.601Z,99.90
2022-08-22T00:11:25.943Z,99.90
2022-08-22T00:14:05.768Z,99.90
2022-08-22T00:16:44.603Z,99.90
2022-08-22T00:19:23.192Z,99.90
2022-08-22T00:21:58.102Z,99.90
2022-08-22T00:24:32.810Z,99.90
2022-08-22T00:27:05.844Z,99.90
2022-08-22T00:29:38.281Z,99.90
2022-08-22T00:32:14.681Z,99.90
2022-08-22T00:34:50.101Z,99.90
2022-08-22T00:37:24.247Z,99.90
2022-08-22T00:40:00.068Z,99.90
2022-08-22T00:43:01.202Z,99.90
2022-08-22T00:45:54.620Z,99.90
2022-08-22T00:49:02.624Z,99.90
2022-08-22T00:52:07.669Z,99.90
2022-08-22T00:54:57.769Z,99.90
2022-08-22T00:57:42.742Z,99.90
2022-08-22T01:00:17.942Z,99.90
2022-08-22T01:03:24.182Z,99.90
2022-08-22T01:06:12.281Z,99.90
2022-08-22T01:09:06.161Z,99.90
2022-08-22T01:12:14.100Z,99.90
2022-08-22T01:14:49.171Z,99.90
2022-08-22T01:17:44.500Z,99.90
2022-08-22T01:20:58.178Z,99.90
2022-08-22T01:26:55.367Z,99.90
2022-08-22T01:30:03.200Z,99.90
2022-08-22T01:33:21.545Z,99.90
2022-08-22T01:36:13.354Z,99.90
2022-08-22T01:39:17.768Z,99.90
2022-08-22T01:42:20.542Z,99.90
2022-08-22T01:45:08.080Z,99.90
2022-08-22T01:47:41.723Z,99.90
2022-08-22T01:50:20.620Z,99.90
2022-08-22T01:52:54.540Z,99.90
2022-08-22T01:55:33.061Z,99.90
2022-08-22T01:58:05.500Z,99.90
2022-08-22T02:00:51.559Z,99.90
2022-08-22T02:03:27.563Z,99.90
2022-08-22T02:06:04.001Z,99.90
2022-08-22T02:08:45.080Z,99.90
2022-08-22T02:11:33.260Z,99.90
2022-08-22T02:14:14.261Z,99.90
2022-08-22T02:16:45.999Z,99.90
2022-08-22T02:19:38.302Z,99.90
2022-08-22T02:22:20.761Z,99.90
2022-08-22T02:25:00.423Z,99.90
2022-08-22T02:27:38.408Z,99.90
2022-08-22T02:30:11.102Z,99.90
2022-08-22T02:32:53.169Z,99.90
2022-08-22T02:35:31.339Z,99.90
2022-08-22T02:38:21.340Z,99.90
2022-08-22T02:41:06.320Z,99.90
2022-08-22T02:43:43.899Z,99.90
2022-08-22T02:46:24.581Z,99.90
2022-08-22T02:49:01.208Z,99.90
2022-08-22T02:51:37.819Z,99.90
2022-08-22T02:54:17.588Z,99.90
2022-08-22T02:56:54.440Z,99.90
2022-08-22T02:59:33.582Z,99.90
2022-08-22T03:02:35.579Z,99.90
2022-08-22T03:05:19.123Z,99.90
2022-08-22T03:07:55.473Z,99.90
2022-08-22T03:10:29.216Z,99.90
2022-08-22T03:13:07.940Z,99.90
2022-08-22T03:15:48.463Z,99.90
2022-08-22T03:18:26.075Z,99.90
2022-08-22T03:20:59.279Z,99.90
2022-08-22T03:23:38.074Z,99.90
2022-08-22T03:26:14.790Z,99.90
2022-08-22T03:28:52.721Z,99.90
2022-08-22T03:31:31.322Z,99.90
2022-08-22T03:34:22.568Z,99.90
2022-08-22T03:37:03.830Z,99.90
2022-08-22T03:39:54.868Z,99.90
2022-08-22T03:42:54.371Z,99.90
2022-08-22T03:46:18.396Z,99.90
2022-08-22T03:48:55.512Z,99.90
2022-08-22T03:52:02.212Z,99.90
2022-08-22T03:55:01.980Z,99.90
2022-08-22T03:57:56.684Z,99.90
2022-08-22T04:01:04.241Z,99.90
2022-08-22T04:03:56.243Z,99.90
2022-08-22T04:07:05.412Z,99.90
2022-08-22T04:10:22.791Z,99.90
2022-08-22T04:13:11.120Z,99.90
2022-08-22T04:16:13.481Z,99.90
2022-08-22T04:19:12.730Z,99.90
2022-08-22T04:22:12.350Z,99.90
2022-08-22T04:24:52.971Z,99.90
2022-08-22T04:27:27.322Z,99.90
2022-08-22T04:30:03.410Z,99.90
2022-08-22T04:32:37.992Z,99.90
2022-08-22T04:35:12.298Z,99.90
2022-08-22T04:37:48.461Z,99.90
2022-08-22T04:40:23.269Z,99.90
2022-08-22T04:42:58.528Z,99.90
2022-08-22T04:45:33.902Z,99.90
2022-08-22T04:48:11.570Z,99.90
2022-08-22T04:50:47.042Z,99.90
2022-08-22T04:53:37.795Z,99.90
2022-08-22T04:56:17.734Z,99.90
2022-08-22T04:58:50.212Z,99.90
2022-08-22T05:01:21.073Z,99.90
2022-08-22T05:03:58.693Z,99.90
2022-08-22T05:06:30.402Z,99.90
2022-08-22T05:09:04.373Z,99.90
2022-08-22T05:11:34.965Z,99.90
2022-08-22T05:14:07.293Z,99.90
2022-08-22T05:16:40.978Z,99.90
2022-08-22T05:19:16.971Z,99.90
2022-08-22T05:21:50.936Z,99.90
2022-08-22T05:24:23.570Z,99.90
2022-08-22T05:26:58.883Z,99.90
2022-08-22T05:29:31.245Z,99.90
2022-08-22T05:32:03.571Z,99.90
2022-08-22T05:34:39.535Z,99.90
2022-08-22T05:37:12.392Z,99.90
2022-08-22T05:39:47.275Z,99.90
2022-08-22T05:42:29.431Z,99.90
2022-08-22T05:44:58.363Z,99.90
2022-08-22T05:47:35.687Z,99.90
2022-08-22T05:50:08.766Z,99.90
2022-08-22T05:52:45.445Z,99.90
2022-08-22T05:55:29.751Z,99.90
2022-08-22T05:58:21.431Z,99.90
2022-08-22T06:00:55.946Z,99.90
2022-08-22T06:03:31.664Z,99.90
2022-08-22T06:06:10.125Z,99.90
2022-08-22T06:08:44.243Z,99.90
2022-08-22T06:11:18.633Z,99.90
2022-08-22T06:13:56.014Z,99.90
2022-08-22T06:16:35.682Z,99.90
2022-08-22T06:19:19.280Z,99.90
2022-08-22T06:21:52.892Z,99.90
2022-08-22T06:24:22.556Z,99.90
2022-08-22T06:26:53.605Z,99.90
2022-08-22T06:29:35.565Z,99.90
2022-08-22T06:32:10.656Z,99.90
2022-08-22T06:34:43.208Z,99.90
2022-08-22T06:37:20.022Z,99.90
2022-08-22T06:39:53.390Z,99.90
2022-08-22T06:42:26.704Z,99.90
2022-08-22T06:45:03.853Z,99.90
2022-08-22T06:47:37.666Z,99.90
2022-08-22T06:50:13.907Z,99.90
2022-08-22T06:52:54.125Z,99.90
2022-08-22T06:55:26.413Z,99.90
2022-08-22T06:57:58.011Z,99.90
2022-08-22T07:00:28.127Z,99.90
2022-08-22T07:03:00.563Z,99.90
2022-08-22T07:05:36.077Z,99.90
2022-08-22T07:08:10.332Z,99.90
2022-08-22T07:10:43.712Z,99.90
2022-08-22T07:13:16.248Z,99.90
2022-08-22T07:15:45.463Z,99.90
2022-08-22T07:18:20.958Z,99.90
2022-08-22T07:20:54.980Z,99.90
2022-08-22T07:23:33.992Z,99.90
2022-08-22T07:26:18.842Z,99.90
2022-08-22T07:28:58.741Z,99.90
2022-08-22T07:31:35.497Z,99.90
2022-08-22T07:34:18.197Z,99.90
2022-08-22T07:36:51.306Z,99.90
2022-08-22T07:39:26.985Z,99.90
2022-08-22T07:42:12.649Z,99.90
2022-08-22T07:45:02.388Z,99.90
2022-08-22T07:47:40.542Z,99.90
2022-08-22T07:50:13.181Z,99.90
2022-08-22T07:52:43.895Z,99.90
2022-08-22T07:55:19.661Z,99.90
2022-08-22T07:57:54.807Z,99.90
2022-08-22T08:00:25.451Z,99.90
2022-08-22T08:02:58.465Z,99.90
2022-08-22T08:05:30.816Z,99.90
2022-08-22T08:08:01.352Z,99.90
2022-08-22T08:10:35.603Z,99.90
2022-08-22T08:13:09.247Z,99.90
2022-08-22T08:15:39.915Z,99.90
2022-08-22T08:18:19.476Z,99.90
2022-08-22T08:20:53.393Z,99.90
2022-08-22T08:23:23.791Z,99.90
2022-08-22T08:26:04.713Z,98.70
2022-08-22T08:28:36.492Z,79.80
2022-08-22T08:31:15.764Z,79.70
2022-08-22T08:33:48.629Z,85.80
2022-08-22T08:36:29.322Z,68.40
2022-08-22T08:39:03.793Z,61.20
2022-08-22T08:41:52.556Z,66.40
2022-08-22T08:44:35.955Z,57.20
2022-08-22T08:47:27.499Z,58.70
2022-08-22T08:50:29.272Z,62.10
2022-08-22T08:53:33.233Z,64.10
2022-08-22T08:56:08.773Z,67.70
2022-08-22T08:58:54.079Z,77.80
2022-08-22T09:01:41.698Z,80.60
2022-08-22T09:04:50.164Z,89.80
2022-08-22T09:07:44.227Z,86.70
2022-08-22T09:10:43.519Z,92.20
2022-08-22T09:13:40.730Z,90.00
2022-08-22T09:16:45.622Z,80.30
2022-08-22T09:19:53.693Z,79.70
2022-08-22T09:23:01.693Z,79.70
2022-08-22T09:25:40.557Z,84.80
2022-08-22T09:28:18.197Z,75.70
2022-08-22T09:31:16.842Z,62.50
2022-08-22T09:34:06.102Z,65.50
2022-08-22T09:36:46.035Z,74.80
2022-08-22T09:39:19.625Z,80.80
2022-08-22T09:41:59.223Z,67.10
2022-08-22T09:44:40.003Z,62.30
2022-08-22T09:47:24.283Z,73.40
2022-08-22T09:50:05.128Z,63.00
2022-08-22T09:52:54.885Z,73.10
2022-08-22T09:55:44.188Z,56.90
2022-08-22T09:58:21.684Z,45.70
2022-08-22T10:00:56.638Z,50.20
2022-08-22T10:03:53.828Z,45.60
2022-08-22T10:06:31.831Z,45.70
2022-08-22T10:09:08.985Z,38.60
2022-08-22T10:11:43.476Z,41.30
2022-08-22T10:14:22.058Z,46.30
2022-08-22T10:17:08.886Z,40.00
2022-08-22T10:19:42.824Z,42.70
2022-08-22T10:22:38.330Z,42.30
2022-08-22T10:25:33.156Z,40.00
2022-08-22T10:28:17.469Z,32.90
2022-08-22T10:30:57.402Z,33.60
2022-08-22T10:33:31.147Z,35.70
2022-08-22T10:36:04.785Z,34.10
2022-08-22T10:38:46.239Z,35.20
2022-08-22T10:41:28.826Z,36.30
2022-08-22T10:44:06.544Z,38.60
2022-08-22T10:46:42.262Z,37.40
2022-08-22T10:49:22.562Z,31.70
2022-08-22T10:52:13.643Z,33.30
2022-08-22T10:54:49.767Z,30.80
2022-08-22T10:57:52.650Z,35.60
2022-08-22T11:00:38.791Z,31.50
2022-08-22T11:03:23.416Z,33.50
2022-08-22T11:05:56.511Z,37.70
2022-08-22T11:08:58.556Z,39.10
2022-08-22T11:11:40.967Z,38.00
2022-08-22T11:14:51.263Z,37.10
2022-08-22T11:17:39.753Z,40.30
2022-08-22T11:20:21.317Z,45.10
2022-08-22T11:23:08.224Z,48.80
2022-08-22T11:25:53.869Z,46.50
2022-08-22T11:28:41.573Z,53.30
2022-08-22T11:31:21.668Z,56.40
2022-08-22T11:33:56.795Z,57.30
2022-08-22T11:36:37.090Z,55.70
2022-08-22T11:39:25.234Z,57.50
2022-08-22T11:42:05.985Z,57.90
2022-08-22T11:44:50.677Z,58.20
2022-08-22T11:47:28.169Z,58.10
2022-08-22T11:50:01.485Z,51.20
2022-08-22T11:52:58.746Z,45.30
2022-08-22T11:55:39.505Z,49.20
2022-08-22T11:58:28.930Z,44.20
2022-08-22T12:01:03.835Z,39.70
2022-08-22T12:03:58.195Z,39.70
2022-08-22T12:06:56.714Z,33.40
2022-08-22T12:09:38.936Z,34.30
2022-08-22T12:12:23.513Z,32.30
2022-08-22T12:15:05.483Z,31.90
2022-08-22T12:18:13.501Z,34.00
2022-08-22T12:21:24.075Z,33.60
2022-08-22T12:24:21.099Z,31.90
2022-08-22T12:27:07.898Z,34.20
2022-08-22T12:29:45.556Z,31.50
2022-08-22T12:32:50.456Z,30.30
2022-08-22T12:35:34.686Z,29.20
2022-08-22T12:38:28.503Z,31.70
2022-08-22T12:41:28.506Z,29.70
2022-08-22T12:44:21.415Z,31.00
2022-08-22T12:47:09.439Z,34.60
2022-08-22T12:49:53.695Z,32.20
2022-08-22T12:52:39.943Z,33.40
2022-08-22T12:55:35.053Z,34.80
2022-08-22T12:58:11.811Z,31.50
2022-08-22T13:00:45.216Z,36.70
2022-08-22T13:03:24.778Z,40.00
2022-08-22T13:05:57.263Z,44.50
2022-08-22T13:08:32.493Z,42.90
2022-08-22T13:11:02.694Z,43.70
2022-08-22T13:13:38.867Z,42.00
2022-08-22T13:16:11.971Z,43.30
2022-08-22T13:18:53.613Z,44.90
2022-08-22T13:21:31.682Z,43.90
2022-08-22T13:24:10.574Z,41.30
2022-08-22T13:26:49.096Z,38.00
2022-08-22T13:29:26.098Z,38.60
2022-08-22T13:32:02.098Z,40.50
2022-08-22T13:34:43.934Z,43.50
2022-08-22T13:37:18.003Z,46.80
2022-08-22T13:39:56.156Z,48.10
2022-08-22T13:42:30.462Z,50.10
2022-08-22T13:45:05.333Z,45.50
2022-08-22T13:47:39.519Z,46.90
2022-08-22T13:50:14.894Z,51.30
2022-08-22T13:52:52.453Z,54.20
2022-08-22T13:55:30.443Z,55.10
2022-08-22T13:58:11.452Z,53.50
2022-08-22T14:01:16.224Z,50.00
2022-08-22T14:03:51.145Z,48.70
2022-08-22T14:06:37.912Z,57.10
2022-08-22T14:09:31.296Z,51.20
2022-08-22T14:12:15.392Z,49.00
2022-08-22T14:14:46.195Z,47.50
2022-08-22T14:17:21.646Z,50.30
2022-08-22T14:19:59.577Z,51.90
2022-08-22T14:22:34.764Z,51.50
2022-08-22T14:25:11.624Z,51.20
2022-08-22T14:27:47.674Z,52.30
2022-08-22T14:30:21.747Z,50.50
2022-08-22T14:32:55.727Z,55.20
2022-08-22T14:35:37.529Z,53.70
2022-08-22T14:38:27.235Z,51.60
2022-08-22T14:41:06.170Z,55.10
2022-08-22T14:43:50.697Z,59.50
2022-08-22T14:46:26.636Z,60.60
2022-08-22T14:49:28.936Z,63.40
2022-08-22T14:52:10.264Z,66.50
2022-08-22T14:54:48.925Z,68.00
2022-08-22T14:57:22.678Z,66.30
2022-08-22T14:59:54.155Z,67.60
2022-08-22T15:02:30.152Z,68.40
2022-08-22T15:05:05.476Z,68.30
2022-08-22T15:07:37.555Z,67.30
2022-08-22T15:10:11.896Z,74.60
2022-08-22T15:12:49.885Z,72.90
2022-08-22T15:15:41.281Z,71.10
2022-08-22T15:18:35.953Z,76.30
2022-08-22T15:21:10.046Z,77.00
2022-08-22T15:23:45.340Z,80.50
2022-08-22T15:26:24.437Z,84.40
2022-08-22T15:29:19.142Z,83.70
2022-08-22T15:31:52.815Z,84.30
2022-08-22T15:34:27.424Z,84.30
2022-08-22T15:37:28.097Z,81.10
2022-08-22T15:40:12.664Z,75.20
2022-08-22T15:42:44.662Z,72.50
2022-08-22T15:45:34.043Z,68.50
2022-08-22T15:48:09.142Z,65.90
2022-08-22T15:50:41.932Z,62.70
2022-08-22T15:53:21.671Z,65.70
2022-08-22T15:56:28.395Z,68.80
2022-08-22T15:59:29.339Z,65.40
2022-08-22T16:02:04.877Z,64.60
2022-08-22T16:04:47.748Z,68.00
2022-08-22T16:07:37.277Z,67.70
2022-08-22T16:10:11.793Z,64.50
2022-08-22T16:12:46.165Z,67.70
2022-08-22T16:15:56.575Z,69.50
2022-08-22T16:19:11.735Z,71.80
2022-08-22T16:22:17.307Z,74.00
2022-08-22T16:25:10.986Z,74.80
2022-08-22T16:27:58.953Z,79.80
2022-08-22T16:30:39.547Z,78.90
2022-08-22T16:33:18.206Z,84.10
2022-08-22T16:36:24.986Z,85.00
2022-08-22T16:38:56.965Z,87.00
2022-08-22T16:41:37.191Z,89.50
2022-08-22T16:44:35.404Z,90.30
2022-08-22T16:47:17.504Z,92.40
2022-08-22T16:50:03.014Z,94.10
2022-08-22T16:53:03.533Z,94.40
2022-08-22T16:55:59.192Z,94.50
2022-08-22T16:59:03.357Z,95.90
2022-08-22T17:02:07.524Z,96.10
2022-08-22T17:04:39.654Z,99.90
2022-08-22T17:07:58.077Z,99.60
2022-08-22T17:10:46.050Z,96.90
2022-08-22T17:13:44.932Z,99.00
2022-08-22T17:16:38.484Z,98.50
2022-08-22T17:19:30.190Z,99.00
2022-08-22T17:22:03.401Z,99.90
2022-08-22T17:24:40.464Z,99.80
2022-08-22T17:27:18.632Z,99.00
2022-08-22T17:30:01.436Z,97.60
2022-08-22T17:32:39.664Z,98.90
2022-08-22T17:35:20.835Z,99.90
2022-08-22T17:37:58.400Z,99.90
2022-08-22T17:40:38.495Z,99.90
2022-08-22T17:43:27.860Z,99.90
2022-08-22T17:46:24.244Z,99.90
2022-08-22T17:49:03.102Z,99.90
2022-08-22T17:51:37.125Z,99.90
2022-08-22T17:54:14.917Z,99.90
2022-08-22T17:56:52.439Z,99.90
2022-08-22T17:59:38.462Z,99.90
2022-08-22T18:02:16.540Z,99.90
2022-08-22T18:04:53.666Z,99.90
2022-08-22T18:07:42.526Z,99.90
2022-08-22T18:10:30.127Z,99.90
2022-08-22T18:13:07.295Z,99.90
2022-08-22T18:15:44.666Z,99.90
2022-08-22T18:18:28.163Z,99.90
2022-08-22T18:21:06.338Z,99.90
2022-08-22T18:23:40.830Z,99.90
2022-08-22T18:26:23.969Z,99.90
2022-08-22T18:28:54.705Z,99.90
2022-08-22T18:31:38.156Z,99.90
2022-08-22T18:34:17.440Z,99.90
2022-08-22T18:36:56.096Z,99.90
2022-08-22T18:39:30.163Z,99.90
2022-08-22T18:42:07.208Z,99.90
2022-08-22T18:44:40.216Z,99.90
2022-08-22T18:47:20.340Z,99.90
2022-08-22T18:49:54.953Z,99.90
2022-08-22T18:52:40.124Z,99.90
2022-08-22T18:55:27.384Z,99.90
2022-08-22T18:58:26.736Z,99.90
2022-08-22T19:01:44.524Z,99.90
2022-08-22T19:04:40.046Z,99.90
2022-08-22T19:07:34.694Z,99.90
2022-08-22T19:10:32.846Z,99.90
2022-08-22T19:13:24.443Z,99.90
2022-08-22T19:16:06.827Z,99.90
2022-08-22T19:18:43.140Z,99.90
2022-08-22T19:21:46.278Z,99.90
2022-08-22T19:24:57.406Z,99.90
2022-08-22T19:27:31.555Z,99.90
2022-08-22T19:30:07.815Z,99.90
2022-08-22T19:33:01.966Z,99.90
2022-08-22T19:35:42.063Z,99.90
2022-08-22T19:38:12.531Z,99.90
2022-08-22T19:40:58.414Z,99.90
2022-08-22T19:43:38.225Z,99.90
2022-08-22T19:46:11.227Z,99.90
2022-08-22T19:48:48.941Z,99.90
2022-08-22T19:51:29.259Z,99.90
2022-08-22T19:54:20.218Z,99.90
2022-08-22T19:57:03.671Z,99.90
2022-08-22T19:59:50.528Z,99.90
2022-08-22T20:02:32.693Z,99.90
2022-08-22T20:05:31.383Z,99.90
2022-08-22T20:08:27.199Z,99.90
2022-08-22T20:11:10.062Z,99.90
2022-08-22T20:13:39.600Z,99.90
2022-08-22T20:16:21.416Z,99.90
2022-08-22T20:19:14.632Z,99.90
2022-08-22T20:21:58.143Z,99.90
2022-08-22T20:24:36.551Z,99.90
2022-08-22T20:27:15.510Z,99.90
2022-08-22T20:29:51.395Z,99.90
2022-08-22T20:32:24.355Z,99.90
2022-08-22T20:34:57.139Z,99.90
2022-08-22T20:38:02.841Z,99.90
2022-08-22T20:40:55.543Z,99.90
2022-08-22T20:43:29.700Z,99.90
2022-08-22T20:46:12.488Z,99.90
2022-08-22T20:48:46.277Z,99.90
2022-08-22T20:51:18.611Z,99.90
2022-08-22T20:53:53.995Z,99.90
2022-08-22T20:56:37.701Z,99.90
2022-08-22T20:59:22.207Z,99.90
2022-08-22T21:01:55.769Z,99.90
2022-08-22T21:04:28.701Z,99.90
2022-08-22T21:07:01.989Z,99.90
2022-08-22T21:09:48.428Z,99.90
2022-08-22T21:12:17.165Z,99.90
2022-08-22T21:14:47.379Z,99.90
2022-08-22T21:17:24.935Z,99.90
2022-08-22T21:19:57.698Z,99.90
2022-08-22T21:22:30.040Z,99.90
2022-08-22T21:25:02.040Z,99.90
2022-08-22T21:27:32.624Z,99.90
2022-08-22T21:30:03.663Z,99.90
2022-08-22T21:32:36.449Z,99.90
2022-08-22T21:35:20.802Z,99.90
2022-08-22T21:37:49.546Z,99.90
2022-08-22T21:40:20.940Z,99.90
2022-08-22T21:43:02.903Z,99.90
2022-08-22T21:45:35.856Z,99.90
2022-08-22T21:48:05.102Z,99.90
2022-08-22T21:50:38.460Z,99.90
2022-08-22T21:53:11.851Z,99.90
2022-08-22T21:55:44.639Z,99.90
2022-08-22T21:58:36.606Z,99.90
2022-08-22T22:01:31.462Z,99.90
2022-08-22T22:04:01.173Z,99.90
2022-08-22T22:06:29.845Z,99.90
2022-08-22T22:08:58.695Z,99.90
2022-08-22T22:11:27.463Z,99.90
2022-08-22T22:13:56.326Z,99.90
2022-08-22T22:16:28.470Z,99.90
2022-08-22T22:18:58.475Z,99.90
2022-08-22T22:21:27.208Z,99.90
2022-08-22T22:23:58.720Z,99.90
2022-08-22T22:26:29.454Z,99.90
2022-08-22T22:28:59.413Z,99.90
2022-08-22T22:31:28.401Z,99.90
2022-08-22T22:33:58.473Z,99.90
2022-08-22T22:36:29.157Z,99.90
2022-08-22T22:38:57.938Z,99.90
2022-08-22T22:41:26.583Z,99.90
2022-08-22T22:43:55.770Z,99.90
2022-08-22T22:46:27.141Z,99.90
2022-08-22T22:48:58.305Z,99.90
2022-08-22T22:51:27.173Z,99.90
2022-08-22T22:53:57.565Z,99.90
2022-08-22T22:56:27.165Z,99.90
2022-08-22T22:58:59.117Z,99.90
2022-08-22T23:01:32.400Z,99.90
2022-08-22T23:04:05.990Z,99.90
2022-08-22T23:06:35.824Z,99.90
2022-08-22T23:09:04.674Z,99.90
2022-08-22T23:11:33.382Z,99.90
2022-08-22T23:14:03.404Z,99.90
2022-08-22T23:16:37.178Z,99.90
2022-08-22T23:19:11.266Z,99.90
2022-08-22T23:21:40.674Z,99.90
2022-08-22T23:24:10.103Z,99.90
2022-08-22T23:26:39.090Z,99.90
2022-08-22T23:29:08.504Z,99.90
2022-08-22T23:31:39.879Z,99.90
2022-08-22T23:34:12.607Z,99.90
2022-08-22T23:36:42.813Z,99.90
2022-08-22T23:39:12.383Z,99.90
2022-08-22T23:41:42.165Z,99.90
2022-08-22T23:44:13.703Z,99.90
2022-08-22T23:46:43.463Z,99.90
2022-08-22T23:49:14.565Z,99.90
2022-08-22T23:51:44.205Z,99.90
2022-08-22T23:54:13.336Z,99.90
2022-08-22T23:56:43.762Z,99.90
2022-08-22T23:59:16.546Z,99.90
